Metar z pełnej godziny Komunikat METAR ze strony awiacja.imgw.pl Metar G00 EPKT METAR EPKT 271500Z 19002KT 8000 BKN031 02/M01 Q0996 =